sensor_id;sensor_type;location;lat;lon;timestamp;pressure;altitude;pressure_sealevel;temperature;humidity
58373;BME280;44177;43.356;27.672;2022-09-09T00:00:26;98363.19;;;22.67;48.56
58373;BME280;44177;43.356;27.672;2022-09-09T00:08:21;98356.06;;;22.66;48.63
58373;BME280;44177;43.356;27.672;2022-09-09T00:10:56;98355.25;;;22.66;48.79
58373;BME280;44177;43.356;27.672;2022-09-09T00:13:46;98344.13;;;22.66;48.77
58373;BME280;44177;43.356;27.672;2022-09-09T00:16:19;98343.38;;;22.65;48.57
58373;BME280;44177;43.356;27.672;2022-09-09T00:19:07;98348.91;;;22.65;48.70
58373;BME280;44177;43.356;27.672;2022-09-09T00:21:45;98352.47;;;22.66;48.54
58373;BME280;44177;43.356;27.672;2022-09-09T00:24:28;98348.91;;;22.65;48.48
58373;BME280;44177;43.356;27.672;2022-09-09T00:27:07;98343.38;;;22.65;48.67
58373;BME280;44177;43.356;27.672;2022-09-09T00:29:43;98344.13;;;22.66;48.70
58373;BME280;44177;43.356;27.672;2022-09-09T00:32:18;98346.50;;;22.67;48.46
58373;BME280;44177;43.356;27.672;2022-09-09T00:34:56;98345.38;;;22.65;48.40
58373;BME280;44177;43.356;27.672;2022-09-09T00:37:22;98346.91;;;22.66;48.69
58373;BME280;44177;43.356;27.672;2022-09-09T00:39:51;98341.34;;;22.66;48.67
58373;BME280;44177;43.356;27.672;2022-09-09T00:42:40;98342.16;;;22.66;48.58
58373;BME280;44177;43.356;27.672;2022-09-09T00:58:01;98336.59;;;22.66;48.46
58373;BME280;44177;43.356;27.672;2022-09-09T01:00:31;98340.94;;;22.67;48.56
58373;BME280;44177;43.356;27.672;2022-09-09T01:11:21;98336.59;;;22.66;48.39
58373;BME280;44177;43.356;27.672;2022-09-09T01:13:52;98338.56;;;22.66;48.54
58373;BME280;44177;43.356;27.672;2022-09-09T01:16:18;98336.59;;;22.66;48.47
58373;BME280;44177;43.356;27.672;2022-09-09T01:18:46;98336.59;;;22.66;48.43
58373;BME280;44177;43.356;27.672;2022-09-09T01:26:46;98332.31;;;22.62;48.61
58373;BME280;44177;43.356;27.672;2022-09-09T01:29:15;98329.47;;;22.65;48.29
58373;BME280;44177;43.356;27.672;2022-09-09T01:31:58;98332.25;;;22.65;48.53
58373;BME280;44177;43.356;27.672;2022-09-09T01:34:27;98322.31;;;22.64;48.35
58373;BME280;44177;43.356;27.672;2022-09-09T01:37:10;98325.09;;;22.64;48.40
58373;BME280;44177;43.356;27.672;2022-09-09T01:39:38;98319.53;;;22.64;48.55
58373;BME280;44177;43.356;27.672;2022-09-09T01:42:08;98319.53;;;22.64;48.40
58373;BME280;44177;43.356;27.672;2022-09-09T01:44:34;98313.28;;;22.60;48.37
58373;BME280;44177;43.356;27.672;2022-09-09T01:47:01;98321.56;;;22.64;48.51
58373;BME280;44177;43.356;27.672;2022-09-09T01:49:26;98319.53;;;22.64;48.48
58373;BME280;44177;43.356;27.672;2022-09-09T01:51:54;98319.53;;;22.64;48.32
58373;BME280;44177;43.356;27.672;2022-09-09T01:54:23;98330.66;;;22.64;48.53
58373;BME280;44177;43.356;27.672;2022-09-09T01:59:37;98325.09;;;22.64;48.48
58373;BME280;44177;43.356;27.672;2022-09-09T02:02:21;98324.34;;;22.64;48.55
58373;BME280;44177;43.356;27.672;2022-09-09T02:07:41;98316.75;;;22.64;48.34
58373;BME280;44177;43.356;27.672;2022-09-09T02:10:09;98323.53;;;22.63;48.30
58373;BME280;44177;43.356;27.672;2022-09-09T02:12:40;98321.97;;;22.62;48.32
58373;BME280;44177;43.356;27.672;2022-09-09T02:17:51;98322.03;;;22.59;48.50
58373;BME280;44177;43.356;27.672;2022-09-09T02:20:18;98329.09;;;22.63;48.33
58373;BME280;44177;43.356;27.672;2022-09-09T02:22:48;98324.41;;;22.60;48.36
58373;BME280;44177;43.356;27.672;2022-09-09T02:25:17;98328.31;;;22.63;48.61
58373;BME280;44177;43.356;27.672;2022-09-09T02:27:45;98329.09;;;22.63;48.48
58373;BME280;44177;43.356;27.672;2022-09-09T02:30:12;98327.53;;;22.62;48.34
58373;BME280;44177;43.356;27.672;2022-09-09T02:32:39;98334.66;;;22.63;48.45
58373;BME280;44177;43.356;27.672;2022-09-09T02:35:11;98325.53;;;22.63;48.29
58373;BME280;44177;43.356;27.672;2022-09-09T02:37:41;98326.31;;;22.63;48.27
58373;BME280;44177;43.356;27.672;2022-09-09T02:40:10;98321.97;;;22.62;48.43
58373;BME280;44177;43.356;27.672;2022-09-09T02:42:43;98319.63;;;22.61;48.22
58373;BME280;44177;43.356;27.672;2022-09-09T02:45:12;98327.53;;;22.62;48.33
58373;BME280;44177;43.356;27.672;2022-09-09T02:47:50;98321.25;;;22.58;48.58
58373;BME280;44177;43.356;27.672;2022-09-09T02:50:18;98323.16;;;22.61;48.22
58373;BME280;44177;43.356;27.672;2022-09-09T02:55:48;98326.38;;;22.60;48.47
58373;BME280;44177;43.356;27.672;2022-09-09T02:58:17;98314.50;;;22.59;48.61
58373;BME280;44177;43.356;27.672;2022-09-09T03:00:45;98322.81;;;22.59;48.43
58373;BME280;44177;43.356;27.672;2022-09-09T03:03:12;98322.81;;;22.59;48.43
58373;BME280;44177;43.356;27.672;2022-09-09T03:05:37;98326.81;;;22.58;48.27
58373;BME280;44177;43.356;27.672;2022-09-09T03:08:04;98334.34;;;22.58;48.64
58373;BME280;44177;43.356;27.672;2022-09-09T03:10:34;98337.13;;;22.58;48.58
58373;BME280;44177;43.356;27.672;2022-09-09T03:13:00;98336.34;;;22.57;48.42
58373;BME280;44177;43.356;27.672;2022-09-09T03:15:26;98330.81;;;22.57;48.71
58373;BME280;44177;43.356;27.672;2022-09-09T03:17:56;98321.69;;;22.57;48.47
58373;BME280;44177;43.356;27.672;2022-09-09T03:20:23;98323.66;;;22.56;48.59
58373;BME280;44177;43.356;27.672;2022-09-09T03:22:49;98324.47;;;22.57;48.62
58373;BME280;44177;43.356;27.672;2022-09-09T03:25:14;98322.91;;;22.55;48.57
58373;BME280;44177;43.356;27.672;2022-09-09T03:27:40;98322.09;;;22.55;48.67
58373;BME280;44177;43.356;27.672;2022-09-09T03:30:06;98324.88;;;22.55;48.46
58373;BME280;44177;43.356;27.672;2022-09-09T03:32:32;98313.88;;;22.48;48.50
58373;BME280;44177;43.356;27.672;2022-09-09T03:34:57;98326.88;;;22.54;48.75
58373;BME280;44177;43.356;27.672;2022-09-09T03:37:23;98325.31;;;22.53;48.51
58373;BME280;44177;43.356;27.672;2022-09-09T03:39:48;98336.44;;;22.53;48.61
58373;BME280;44177;43.356;27.672;2022-09-09T03:42:15;98320.53;;;22.54;48.72
58373;BME280;44177;43.356;27.672;2022-09-09T03:44:44;98328.09;;;22.53;48.57
58373;BME280;44177;43.356;27.672;2022-09-09T03:47:10;98323.72;;;22.52;48.70
58373;BME280;44177;43.356;27.672;2022-09-09T03:49:35;98326.94;;;22.51;48.74
58373;BME280;44177;43.356;27.672;2022-09-09T03:52:01;98324.53;;;22.53;48.66
58373;BME280;44177;43.356;27.672;2022-09-09T03:54:26;98325.31;;;22.53;48.89
58373;BME280;44177;43.356;27.672;2022-09-09T03:56:52;98320.53;;;22.54;48.54
58373;BME280;44177;43.356;27.672;2022-09-09T03:59:17;98322.09;;;22.55;48.59
58373;BME280;44177;43.356;27.672;2022-09-09T04:01:43;98331.63;;;22.54;48.61
58373;BME280;44177;43.356;27.672;2022-09-09T04:04:10;98325.31;;;22.53;48.64
58373;BME280;44177;43.356;27.672;2022-09-09T04:06:37;98324.53;;;22.53;48.53
58373;BME280;44177;43.356;27.672;2022-09-09T04:09:02;98330.88;;;22.53;48.44
58373;BME280;44177;43.356;27.672;2022-09-09T04:11:28;98330.09;;;22.53;48.47
58373;BME280;44177;43.356;27.672;2022-09-09T04:13:54;98327.31;;;22.53;48.54
58373;BME280;44177;43.356;27.672;2022-09-09T04:16:19;98322.97;;;22.52;48.48
58373;BME280;44177;43.356;27.672;2022-09-09T04:18:45;98322.97;;;22.52;48.45
58373;BME280;44177;43.356;27.672;2022-09-09T04:21:11;98318.97;;;22.53;48.74
58373;BME280;44177;43.356;27.672;2022-09-09T04:23:38;98320.19;;;22.52;48.69
58373;BME280;44177;43.356;27.672;2022-09-09T04:26:04;98316.19;;;22.53;48.40
58373;BME280;44177;43.356;27.672;2022-09-09T04:28:32;98314.69;;;22.48;48.54
58373;BME280;44177;43.356;27.672;2022-09-09T04:31:10;98326.94;;;22.51;48.55
58373;BME280;44177;43.356;27.672;2022-09-09T04:33:36;98327.72;;;22.51;48.56
58373;BME280;44177;43.356;27.672;2022-09-09T04:36:03;98329.72;;;22.51;48.75
58373;BME280;44177;43.356;27.672;2022-09-09T04:38:28;98337.25;;;22.50;48.49
58373;BME280;44177;43.356;27.672;2022-09-09T04:40:54;98333.72;;;22.50;48.53
58373;BME280;44177;43.356;27.672;2022-09-09T04:43:20;98335.28;;;22.51;48.65
58373;BME280;44177;43.356;27.672;2022-09-09T04:45:50;98329.34;;;22.49;48.99
58373;BME280;44177;43.356;27.672;2022-09-09T04:48:16;98325.13;;;22.40;48.92
58373;BME280;44177;43.356;27.672;2022-09-09T04:50:42;98338.84;;;22.51;48.91
58373;BME280;44177;43.356;27.672;2022-09-09T04:53:08;98339.63;;;22.52;49.00
58373;BME280;44177;43.356;27.672;2022-09-09T04:55:34;98330.88;;;22.53;49.02
58373;BME280;44177;43.356;27.672;2022-09-09T04:58:07;98338.06;;;22.51;48.99
58373;BME280;44177;43.356;27.672;2022-09-09T05:00:34;98342.75;;;22.54;49.22
58373;BME280;44177;43.356;27.672;2022-09-09T05:03:07;98330.88;;;22.53;49.54
58373;BME280;44177;43.356;27.672;2022-09-09T05:05:34;98331.00;;;22.46;50.70
58373;BME280;44177;43.356;27.672;2022-09-09T05:08:04;98331.97;;;22.32;51.27
58373;BME280;44177;43.356;27.672;2022-09-09T05:10:31;98328.59;;;21.97;53.06
58373;BME280;44177;43.356;27.672;2022-09-09T05:12:56;98333.88;;;21.88;53.41
58373;BME280;44177;43.356;27.672;2022-09-09T05:15:22;98331.22;;;21.81;53.65
58373;BME280;44177;43.356;27.672;2022-09-09T05:17:48;98342.31;;;21.81;53.75
58373;BME280;44177;43.356;27.672;2022-09-09T05:20:13;98344.72;;;21.79;53.86
58373;BME280;44177;43.356;27.672;2022-09-09T05:22:39;98330.84;;;21.79;54.14
58373;BME280;44177;43.356;27.672;2022-09-09T05:25:05;98336.41;;;21.79;53.72
58373;BME280;44177;43.356;27.672;2022-09-09T05:27:33;98312.97;;;21.80;53.33
58373;BME280;44177;43.356;27.672;2022-09-09T05:29:59;98329.53;;;21.87;53.30
58373;BME280;44177;43.356;27.672;2022-09-09T05:32:24;98323.16;;;21.90;53.19
58373;BME280;44177;43.356;27.672;2022-09-09T05:34:50;98324.66;;;21.95;53.24
58373;BME280;44177;43.356;27.672;2022-09-09T05:37:16;98334.56;;;21.96;53.48
58373;BME280;44177;43.356;27.672;2022-09-09T05:39:42;98335.03;;;21.90;53.47
58373;BME280;44177;43.356;27.672;2022-09-09T05:42:07;98329.44;;;21.94;53.18
58373;BME280;44177;43.356;27.672;2022-09-09T05:44:33;98329.75;;;22.00;52.71
58373;BME280;44177;43.356;27.672;2022-09-09T05:46:58;98307.97;;;21.95;52.72
58373;BME280;44177;43.356;27.672;2022-09-09T05:49:24;98314.94;;;22.06;52.81
58373;BME280;44177;43.356;27.672;2022-09-09T05:51:50;98327.09;;;22.16;52.36
58373;BME280;44177;43.356;27.672;2022-09-09T05:54:16;98317.50;;;22.21;52.19
58373;BME280;44177;43.356;27.672;2022-09-09T05:56:41;98321.75;;;22.25;52.04
58373;BME280;44177;43.356;27.672;2022-09-09T05:59:07;98326.50;;;22.29;51.97
58373;BME280;44177;43.356;27.672;2022-09-09T06:01:35;98328.44;;;22.32;51.52
58373;BME280;44177;43.356;27.672;2022-09-09T06:04:02;98322.81;;;22.35;51.19
58373;BME280;44177;43.356;27.672;2022-09-09T06:06:34;98331.13;;;22.39;51.04
58373;BME280;44177;43.356;27.672;2022-09-09T06:09:04;98333.84;;;22.43;51.15
58373;BME280;44177;43.356;27.672;2022-09-09T06:11:33;98332.25;;;22.42;51.04
58373;BME280;44177;43.356;27.672;2022-09-09T06:14:00;98339.75;;;22.45;50.83
58373;BME280;44177;43.356;27.672;2022-09-09T06:16:27;98341.75;;;22.44;50.95
58373;BME280;44177;43.356;27.672;2022-09-09T06:18:54;98338.47;;;22.49;50.96
58373;BME280;44177;43.356;27.672;2022-09-09T06:21:25;98342.41;;;22.52;50.57
58373;BME280;44177;43.356;27.672;2022-09-09T06:23:51;98342.41;;;22.52;50.78
58373;BME280;44177;43.356;27.672;2022-09-09T06:26:40;98338.00;;;22.54;50.40
58373;BME280;44177;43.356;27.672;2022-09-09T06:29:06;98347.91;;;22.55;50.43
58373;BME280;44177;43.356;27.672;2022-09-09T06:31:34;98354.59;;;22.58;50.32
58373;BME280;44177;43.356;27.672;2022-09-09T06:34:04;98356.97;;;22.60;50.12
58373;BME280;44177;43.356;27.672;2022-09-09T06:36:31;98350.97;;;22.61;50.00
58373;BME280;44177;43.356;27.672;2022-09-09T06:38:58;98356.91;;;22.63;49.96
58373;BME280;44177;43.356;27.672;2022-09-09T06:41:26;98355.69;;;22.64;49.71
58373;BME280;44177;43.356;27.672;2022-09-09T06:43:52;98364.03;;;22.64;49.68
58373;BME280;44177;43.356;27.672;2022-09-09T06:46:28;98359.22;;;22.68;49.48
58373;BME280;44177;43.356;27.672;2022-09-09T06:48:56;98352.41;;;22.69;49.67
58373;BME280;44177;43.356;27.672;2022-09-09T06:51:25;98352.78;;;22.71;49.66
58373;BME280;44177;43.356;27.672;2022-09-09T06:53:52;98343.28;;;22.69;49.61
58373;BME280;44177;43.356;27.672;2022-09-09T06:58:52;98347.94;;;22.76;49.24
58373;BME280;44177;43.356;27.672;2022-09-09T07:01:23;98349.53;;;22.77;49.15
58373;BME280;44177;43.356;27.672;2022-09-09T07:03:54;98361.41;;;22.77;49.09
58373;BME280;44177;43.356;27.672;2022-09-09T07:06:24;98345.50;;;22.78;49.27
58373;BME280;44177;43.356;27.672;2022-09-09T07:08:52;98359.78;;;22.80;49.06
58373;BME280;44177;43.356;27.672;2022-09-09T07:11:19;98366.91;;;22.81;49.18
58373;BME280;44177;43.356;27.672;2022-09-09T07:13:46;98350.72;;;22.76;49.19
58373;BME280;44177;43.356;27.672;2022-09-09T07:16:14;98358.13;;;22.82;48.85
58373;BME280;44177;43.356;27.672;2022-09-09T07:18:40;98357.38;;;22.82;49.06
58373;BME280;44177;43.356;27.672;2022-09-09T07:21:07;98347.09;;;22.79;48.65
58373;BME280;44177;43.356;27.672;2022-09-09T07:23:34;98350.16;;;22.84;48.94
58373;BME280;44177;43.356;27.672;2022-09-09T07:26:01;98349.72;;;22.86;48.90
58373;BME280;44177;43.356;27.672;2022-09-09T07:28:26;98350.16;;;22.84;48.75
58373;BME280;44177;43.356;27.672;2022-09-09T07:30:59;98356.88;;;22.87;48.79
58373;BME280;44177;43.356;27.672;2022-09-09T07:33:26;98351.66;;;22.89;48.82
58373;BME280;44177;43.356;27.672;2022-09-09T07:35:52;98364.38;;;22.90;48.61
58373;BME280;44177;43.356;27.672;2022-09-09T07:38:19;98364.38;;;22.90;48.82
58373;BME280;44177;43.356;27.672;2022-09-09T07:40:46;98363.16;;;22.91;48.63
58373;BME280;44177;43.356;27.672;2022-09-09T07:43:11;98373.84;;;22.93;48.56
58373;BME280;44177;43.356;27.672;2022-09-09T07:45:37;98361.94;;;22.92;48.47
58373;BME280;44177;43.356;27.672;2022-09-09T07:48:04;98360.72;;;22.93;48.41
58373;BME280;44177;43.356;27.672;2022-09-09T07:50:30;98372.22;;;22.95;48.45
58373;BME280;44177;43.356;27.672;2022-09-09T07:52:56;98366.66;;;22.95;48.42
58373;BME280;44177;43.356;27.672;2022-09-09T07:55:22;98362.66;;;22.96;48.43
58373;BME280;44177;43.356;27.672;2022-09-09T07:57:52;98358.66;;;22.97;48.40
58373;BME280;44177;43.356;27.672;2022-09-09T08:00:18;98358.22;;;22.99;48.41
58373;BME280;44177;43.356;27.672;2022-09-09T08:02:45;98339.63;;;22.96;48.34
58373;BME280;44177;43.356;27.672;2022-09-09T08:05:11;98351.47;;;23.00;48.40
58373;BME280;44177;43.356;27.672;2022-09-09T08:07:38;98351.03;;;23.01;48.36
58373;BME280;44177;43.356;27.672;2022-09-09T08:10:04;98336.34;;;23.01;48.14
58373;BME280;44177;43.356;27.672;2022-09-09T08:12:29;98331.16;;;23.03;48.06
58373;BME280;44177;43.356;27.672;2022-09-09T08:14:55;98334.41;;;22.98;48.41
58373;BME280;44177;43.356;27.672;2022-09-09T08:17:20;98343.41;;;23.06;48.07
58373;BME280;44177;43.356;27.672;2022-09-09T08:19:45;98349.34;;;23.08;48.22
58373;BME280;44177;43.356;27.672;2022-09-09T08:22:11;98334.63;;;23.07;48.17
58373;BME280;44177;43.356;27.672;2022-09-09T08:24:36;98321.16;;;23.06;47.99
58373;BME280;44177;43.356;27.672;2022-09-09T08:27:02;98318.72;;;23.08;47.96
58373;BME280;44177;43.356;27.672;2022-09-09T08:29:27;98320.28;;;23.09;47.97
58373;BME280;44177;43.356;27.672;2022-09-09T08:31:58;98323.06;;;23.09;48.14
58373;BME280;44177;43.356;27.672;2022-09-09T08:34:25;98319.44;;;23.12;47.87
58373;BME280;44177;43.356;27.672;2022-09-09T08:36:52;98305.88;;;23.14;47.96
58373;BME280;44177;43.356;27.672;2022-09-09T08:39:20;98314.59;;;23.16;47.99
58373;BME280;44177;43.356;27.672;2022-09-09T08:52:19;98310.41;;;23.28;47.52
58373;BME280;44177;43.356;27.672;2022-09-09T08:54:47;98307.94;;;23.30;47.53
58373;BME280;44177;43.356;27.672;2022-09-09T08:57:21;98292.06;;;23.30;47.47
58373;BME280;44177;43.356;27.672;2022-09-09T08:59:51;98298.31;;;23.34;47.37
58373;BME280;44177;43.356;27.672;2022-09-09T09:02:27;98292.06;;;23.30;47.44
58373;BME280;44177;43.356;27.672;2022-09-09T09:05:45;98297.47;;;23.38;47.23
58373;BME280;44177;43.356;27.672;2022-09-09T09:10:50;98297.38;;;23.41;47.05
58373;BME280;44177;43.356;27.672;2022-09-09T09:15:48;98292.94;;;23.44;47.27
58373;BME280;44177;43.356;27.672;2022-09-09T09:18:16;98282.19;;;23.46;47.21
58373;BME280;44177;43.356;27.672;2022-09-09T09:20:48;98300.44;;;23.47;47.20
58373;BME280;44177;43.356;27.672;2022-09-09T09:23:22;98302.34;;;23.50;47.06
58373;BME280;44177;43.356;27.672;2022-09-09T09:25:50;98291.22;;;23.50;47.01
58373;BME280;44177;43.356;27.672;2022-09-09T09:28:23;98301.50;;;23.53;47.07
58373;BME280;44177;43.356;27.672;2022-09-09T09:30:56;98300.28;;;23.54;47.07
58373;BME280;44177;43.356;27.672;2022-09-09T09:33:47;98303.41;;;23.56;46.94
58373;BME280;44177;43.356;27.672;2022-09-09T09:36:12;98319.25;;;23.59;47.01
58373;BME280;44177;43.356;27.672;2022-09-09T09:38:52;98304.47;;;23.62;46.97
58373;BME280;44177;43.356;27.672;2022-09-09T09:41:38;98284.09;;;23.65;46.91
58373;BME280;44177;43.356;27.672;2022-09-09T09:44:05;98272.13;;;23.69;46.59
58373;BME280;44177;43.356;27.672;2022-09-09T09:46:32;98280.03;;;23.70;46.51
58373;BME280;44177;43.356;27.672;2022-09-09T09:49:03;98273.69;;;23.70;46.54
58373;BME280;44177;43.356;27.672;2022-09-09T09:51:31;98280.28;;;23.76;46.27
58373;BME280;44177;43.356;27.672;2022-09-09T09:54:09;98271.09;;;23.79;46.18
58373;BME280;44177;43.356;27.672;2022-09-09T09:56:39;98273.44;;;23.80;46.47
58373;BME280;44177;43.356;27.672;2022-09-09T09:59:23;98271.78;;;23.83;46.29
58373;BME280;44177;43.356;27.672;2022-09-09T10:02:22;98273.78;;;23.83;46.34
58373;BME280;44177;43.356;27.672;2022-09-09T10:05:22;98271.78;;;23.83;46.29
58373;BME280;44177;43.356;27.672;2022-09-09T10:08:12;98281.25;;;23.86;46.38
58373;BME280;44177;43.356;27.672;2022-09-09T10:19:05;98259.69;;;23.90;45.98
58373;BME280;44177;43.356;27.672;2022-09-09T10:21:43;98249.31;;;23.90;45.97
58373;BME280;44177;43.356;27.672;2022-09-09T10:33:08;98257.66;;;23.90;45.96
58373;BME280;44177;43.356;27.672;2022-09-09T10:38:20;98259.22;;;23.91;46.42
58373;BME280;44177;43.356;27.672;2022-09-09T10:41:03;98268.38;;;23.92;46.32
58373;BME280;44177;43.356;27.672;2022-09-09T10:57:25;98265.53;;;23.95;46.34
58373;BME280;44177;43.356;27.672;2022-09-09T10:59:57;98252.91;;;23.91;45.99
58373;BME280;44177;43.356;27.672;2022-09-09T11:02:29;98271.44;;;23.97;46.26
58373;BME280;44177;43.356;27.672;2022-09-09T11:10:01;98261.44;;;24.00;46.12
58373;BME280;44177;43.356;27.672;2022-09-09T11:12:29;98255.44;;;24.02;46.06
58373;BME280;44177;43.356;27.672;2022-09-09T11:15:07;98254.22;;;24.03;46.02
58373;BME280;44177;43.356;27.672;2022-09-09T11:17:46;98259.78;;;24.03;46.04
58373;BME280;44177;43.356;27.672;2022-09-09T11:20:14;98255.09;;;24.00;45.87
58373;BME280;44177;43.356;27.672;2022-09-09T11:22:58;98256.13;;;24.06;46.10
58373;BME280;44177;43.356;27.672;2022-09-09T11:25:34;98256.13;;;24.06;46.23
58373;BME280;44177;43.356;27.672;2022-09-09T11:28:16;98245.78;;;24.06;46.06
58373;BME280;44177;43.356;27.672;2022-09-09T11:31:07;98248.97;;;24.05;46.21
58373;BME280;44177;43.356;27.672;2022-09-09T11:42:06;98250.53;;;24.06;46.02
58373;BME280;44177;43.356;27.672;2022-09-09T11:44:32;98252.56;;;24.05;46.27
58373;BME280;44177;43.356;27.672;2022-09-09T11:46:58;98238.63;;;24.05;46.40
58373;BME280;44177;43.356;27.672;2022-09-09T11:49:41;98239.41;;;24.06;46.39
58373;BME280;44177;43.356;27.672;2022-09-09T11:52:21;98247.31;;;24.07;46.18
58373;BME280;44177;43.356;27.672;2022-09-09T11:54:49;98240.97;;;24.07;46.13
58373;BME280;44177;43.356;27.672;2022-09-09T11:57:36;98249.31;;;24.07;46.18
58373;BME280;44177;43.356;27.672;2022-09-09T12:00:03;98248.56;;;24.06;46.07
58373;BME280;44177;43.356;27.672;2022-09-09T12:02:30;98244.97;;;24.06;46.47
58373;BME280;44177;43.356;27.672;2022-09-09T12:05:08;98254.13;;;24.06;46.29
58373;BME280;44177;43.356;27.672;2022-09-09T12:07:55;98239.06;;;24.04;46.51
58373;BME280;44177;43.356;27.672;2022-09-09T12:10:33;98231.94;;;24.03;46.47
58373;BME280;44177;43.356;27.672;2022-09-09T12:13:18;98228.34;;;24.02;46.36
58373;BME280;44177;43.356;27.672;2022-09-09T12:15:56;98217.22;;;24.02;46.61
58373;BME280;44177;43.356;27.672;2022-09-09T12:18:42;98229.16;;;24.03;46.24
58373;BME280;44177;43.356;27.672;2022-09-09T12:21:26;98222.78;;;24.02;46.16
58373;BME280;44177;43.356;27.672;2022-09-09T12:24:08;98217.22;;;24.02;46.45
58373;BME280;44177;43.356;27.672;2022-09-09T12:26:54;98211.63;;;24.02;46.31
58373;BME280;44177;43.356;27.672;2022-09-09T12:29:40;98212.94;;;23.97;46.34
58373;BME280;44177;43.356;27.672;2022-09-09T12:32:15;98226.00;;;24.01;46.53
58373;BME280;44177;43.356;27.672;2022-09-09T12:34:47;98231.59;;;24.01;46.18
58373;BME280;44177;43.356;27.672;2022-09-09T12:37:35;98223.22;;;24.01;46.51
58373;BME280;44177;43.356;27.672;2022-09-09T12:40:28;98209.28;;;24.01;46.43
58373;BME280;44177;43.356;27.672;2022-09-09T12:42:52;98195.47;;;23.97;46.64
58373;BME280;44177;43.356;27.672;2022-09-09T12:45:25;98220.09;;;23.99;46.48
58373;BME280;44177;43.356;27.672;2022-09-09T12:50:30;98209.38;;;23.97;46.74
58373;BME280;44177;43.356;27.672;2022-09-09T12:52:59;98205.38;;;23.98;47.00
58373;BME280;44177;43.356;27.672;2022-09-09T12:55:32;98197.44;;;23.96;46.51
58373;BME280;44177;43.356;27.672;2022-09-09T12:58:01;98200.22;;;23.96;46.64
58373;BME280;44177;43.356;27.672;2022-09-09T13:00:30;98198.25;;;23.97;46.55
58373;BME280;44177;43.356;27.672;2022-09-09T13:03:01;98201.44;;;23.95;46.91
58373;BME280;44177;43.356;27.672;2022-09-09T13:05:34;98199.91;;;23.94;46.73
58373;BME280;44177;43.356;27.672;2022-09-09T13:08:02;98195.09;;;23.95;46.92
58373;BME280;44177;43.356;27.672;2022-09-09T13:10:30;98190.31;;;23.95;46.81
58373;BME280;44177;43.356;27.672;2022-09-09T13:12:58;98188.75;;;23.94;46.78
58373;BME280;44177;43.356;27.672;2022-09-09T13:15:28;98192.75;;;23.93;47.03
58373;BME280;44177;43.356;27.672;2022-09-09T13:18:04;98187.19;;;23.93;46.80
58373;BME280;44177;43.356;27.672;2022-09-09T13:20:31;98191.16;;;23.92;46.66
58373;BME280;44177;43.356;27.672;2022-09-09T13:22:57;98195.16;;;23.91;46.71
58373;BME280;44177;43.356;27.672;2022-09-09T13:25:27;98183.25;;;23.91;47.03
58373;BME280;44177;43.356;27.672;2022-09-09T13:28:05;98182.47;;;23.90;46.75
58373;BME280;44177;43.356;27.672;2022-09-09T13:30:33;98169.06;;;23.85;46.57
58373;BME280;44177;43.356;27.672;2022-09-09T13:36:09;98184.88;;;23.88;46.82
58373;BME280;44177;43.356;27.672;2022-09-09T13:38:38;98178.53;;;23.88;46.85
58373;BME280;44177;43.356;27.672;2022-09-09T13:41:09;98169.41;;;23.87;46.88
58373;BME280;44177;43.356;27.672;2022-09-09T13:43:43;98178.53;;;23.88;46.79
58373;BME280;44177;43.356;27.672;2022-09-09T13:46:31;98174.19;;;23.87;46.92
58373;BME280;44177;43.356;27.672;2022-09-09T13:51:38;98180.97;;;23.86;46.96
58373;BME280;44177;43.356;27.672;2022-09-09T13:54:05;98184.56;;;23.86;46.88
58373;BME280;44177;43.356;27.672;2022-09-09T13:56:33;98180.22;;;23.85;46.72
58373;BME280;44177;43.356;27.672;2022-09-09T13:58:59;98183.78;;;23.86;46.82
58373;BME280;44177;43.356;27.672;2022-09-09T14:01:24;98180.22;;;23.85;47.16
58373;BME280;44177;43.356;27.672;2022-09-09T14:03:50;98180.22;;;23.85;46.72
58373;BME280;44177;43.356;27.672;2022-09-09T14:06:16;98185.78;;;23.85;46.90
58373;BME280;44177;43.356;27.672;2022-09-09T14:08:42;98166.28;;;23.85;47.12
58373;BME280;44177;43.356;27.672;2022-09-09T14:11:11;98169.50;;;23.84;46.98
58373;BME280;44177;43.356;27.672;2022-09-09T14:13:37;98161.94;;;23.84;47.09
58373;BME280;44177;43.356;27.672;2022-09-09T14:16:03;98173.06;;;23.84;46.82
58373;BME280;44177;43.356;27.672;2022-09-09T14:18:28;98160.00;;;23.81;47.04
58373;BME280;44177;43.356;27.672;2022-09-09T14:20:54;98164.38;;;23.82;47.31
58373;BME280;44177;43.356;27.672;2022-09-09T14:23:19;98159.59;;;23.83;47.09
58373;BME280;44177;43.356;27.672;2022-09-09T14:25:47;98162.13;;;23.77;47.32
58373;BME280;44177;43.356;27.672;2022-09-09T14:28:14;98161.56;;;23.82;47.35
58373;BME280;44177;43.356;27.672;2022-09-09T14:30:41;98161.56;;;23.82;47.07
58373;BME280;44177;43.356;27.672;2022-09-09T14:33:08;98158.44;;;23.80;47.12
58373;BME280;44177;43.356;27.672;2022-09-09T14:35:34;98150.09;;;23.80;47.17
58373;BME280;44177;43.356;27.672;2022-09-09T14:38:02;98154.44;;;23.81;47.19
58373;BME280;44177;43.356;27.672;2022-09-09T14:40:28;98145.41;;;23.77;47.39
58373;BME280;44177;43.356;27.672;2022-09-09T14:42:53;98158.44;;;23.80;47.32
58373;BME280;44177;43.356;27.672;2022-09-09T14:45:19;98154.13;;;23.79;47.35
58373;BME280;44177;43.356;27.672;2022-09-09T14:47:46;98158.13;;;23.78;47.33
58373;BME280;44177;43.356;27.672;2022-09-09T14:50:12;98149.75;;;23.78;47.51
58373;BME280;44177;43.356;27.672;2022-09-09T14:52:38;98145.41;;;23.77;47.55
58373;BME280;44177;43.356;27.672;2022-09-09T14:55:04;98148.19;;;23.77;47.54
58373;BME280;44177;43.356;27.672;2022-09-09T14:57:30;98147.38;;;23.76;47.52
58373;BME280;44177;43.356;27.672;2022-09-09T14:59:56;98149.41;;;23.76;47.45
58373;BME280;44177;43.356;27.672;2022-09-09T15:02:22;98141.06;;;23.76;47.82